sensor_id;sensor_type;location;lat;lon;timestamp;temperature;humidity
64869;DHT22;51349;52.424;10.840;2023-10-31T00:02:59;11.60;99.90
64869;DHT22;51349;52.424;10.840;2023-10-31T00:07:59;11.60;99.90
64869;DHT22;51349;52.424;10.840;2023-10-31T00:13:00;11.60;99.90
64869;DHT22;51349;52.424;10.840;2023-10-31T00:18:01;11.60;99.90
64869;DHT22;51349;52.424;10.840;2023-10-31T00:23:01;11.60;99.90
64869;DHT22;51349;52.424;10.840;2023-10-31T00:28:02;11.60;99.90
64869;DHT22;51349;52.424;10.840;2023-10-31T00:33:03;11.60;99.90
64869;DHT22;51349;52.424;10.840;2023-10-31T00:38:03;11.60;99.90
64869;DHT22;51349;52.424;10.840;2023-10-31T00:43:04;11.70;99.90
64869;DHT22;51349;52.424;10.840;2023-10-31T00:48:05;11.70;99.90
64869;DHT22;51349;52.424;10.840;2023-10-31T00:53:07;11.80;99.90
64869;DHT22;51349;52.424;10.840;2023-10-31T00:58:07;11.80;99.90
64869;DHT22;51349;52.424;10.840;2023-10-31T01:03:08;11.80;99.90
64869;DHT22;51349;52.424;10.840;2023-10-31T01:08:09;11.80;99.90
64869;DHT22;51349;52.424;10.840;2023-10-31T01:13:09;11.80;99.90
64869;DHT22;51349;52.424;10.840;2023-10-31T01:18:10;11.80;99.90
64869;DHT22;51349;52.424;10.840;2023-10-31T01:23:11;11.80;99.90
64869;DHT22;51349;52.424;10.840;2023-10-31T01:28:11;11.80;99.90
64869;DHT22;51349;52.424;10.840;2023-10-31T01:33:12;11.90;99.90
64869;DHT22;51349;52.424;10.840;2023-10-31T01:38:12;11.90;99.90
64869;DHT22;51349;52.424;10.840;2023-10-31T01:43:29;11.90;99.90
64869;DHT22;51349;52.424;10.840;2023-10-31T01:48:31;11.90;99.90
64869;DHT22;51349;52.424;10.840;2023-10-31T01:53:34;12.00;99.90
64869;DHT22;51349;52.424;10.840;2023-10-31T01:58:36;12.00;99.90
64869;DHT22;51349;52.424;10.840;2023-10-31T02:03:37;12.00;99.90
64869;DHT22;51349;52.424;10.840;2023-10-31T02:08:39;12.00;99.90
64869;DHT22;51349;52.424;10.840;2023-10-31T02:13:40;12.00;99.90
64869;DHT22;51349;52.424;10.840;2023-10-31T02:18:40;12.00;99.90
64869;DHT22;51349;52.424;10.840;2023-10-31T02:23:41;12.00;99.90
64869;DHT22;51349;52.424;10.840;2023-10-31T02:28:42;12.00;99.90
64869;DHT22;51349;52.424;10.840;2023-10-31T02:33:43;12.10;99.90
64869;DHT22;51349;52.424;10.840;2023-10-31T02:38:43;12.10;99.90
64869;DHT22;51349;52.424;10.840;2023-10-31T02:43:45;12.10;99.90
64869;DHT22;51349;52.424;10.840;2023-10-31T02:48:45;12.10;99.90
64869;DHT22;51349;52.424;10.840;2023-10-31T02:53:46;12.00;99.90
64869;DHT22;51349;52.424;10.840;2023-10-31T02:58:47;12.00;99.90
64869;DHT22;51349;52.424;10.840;2023-10-31T03:03:47;12.00;99.90
64869;DHT22;51349;52.424;10.840;2023-10-31T03:08:48;12.00;99.90
64869;DHT22;51349;52.424;10.840;2023-10-31T03:13:50;12.00;99.90
64869;DHT22;51349;52.424;10.840;2023-10-31T03:18:51;12.00;99.90
64869;DHT22;51349;52.424;10.840;2023-10-31T03:23:51;12.00;99.90
64869;DHT22;51349;52.424;10.840;2023-10-31T03:28:56;12.00;99.90
64869;DHT22;51349;52.424;10.840;2023-10-31T03:33:57;12.00;99.90
64869;DHT22;51349;52.424;10.840;2023-10-31T03:38:58;12.10;99.90
64869;DHT22;51349;52.424;10.840;2023-10-31T03:43:59;12.20;99.90
64869;DHT22;51349;52.424;10.840;2023-10-31T03:48:59;12.20;99.90
64869;DHT22;51349;52.424;10.840;2023-10-31T03:54:00;12.20;99.90
64869;DHT22;51349;52.424;10.840;2023-10-31T03:59:01;12.20;99.90
64869;DHT22;51349;52.424;10.840;2023-10-31T04:04:02;12.20;99.90
64869;DHT22;51349;52.424;10.840;2023-10-31T04:09:03;12.20;99.90
64869;DHT22;51349;52.424;10.840;2023-10-31T04:14:03;12.20;99.90
64869;DHT22;51349;52.424;10.840;2023-10-31T04:19:04;12.20;99.90
64869;DHT22;51349;52.424;10.840;2023-10-31T04:24:05;12.20;99.90
64869;DHT22;51349;52.424;10.840;2023-10-31T04:29:06;12.20;99.90
64869;DHT22;51349;52.424;10.840;2023-10-31T04:34:07;12.20;99.90
64869;DHT22;51349;52.424;10.840;2023-10-31T04:39:08;12.30;99.90
64869;DHT22;51349;52.424;10.840;2023-10-31T04:44:10;12.30;99.90
64869;DHT22;51349;52.424;10.840;2023-10-31T04:49:10;12.30;99.90
64869;DHT22;51349;52.424;10.840;2023-10-31T04:54:11;12.30;99.90
64869;DHT22;51349;52.424;10.840;2023-10-31T04:59:11;12.10;99.90
64869;DHT22;51349;52.424;10.840;2023-10-31T05:04:12;11.80;99.90
64869;DHT22;51349;52.424;10.840;2023-10-31T05:09:14;11.70;99.90
64869;DHT22;51349;52.424;10.840;2023-10-31T05:14:15;11.50;99.90
64869;DHT22;51349;52.424;10.840;2023-10-31T05:19:15;11.50;99.90
64869;DHT22;51349;52.424;10.840;2023-10-31T05:24:16;11.40;99.90
64869;DHT22;51349;52.424;10.840;2023-10-31T05:29:17;11.40;99.90
64869;DHT22;51349;52.424;10.840;2023-10-31T05:34:17;11.30;99.90
64869;DHT22;51349;52.424;10.840;2023-10-31T05:39:18;11.30;99.90
64869;DHT22;51349;52.424;10.840;2023-10-31T05:44:18;11.30;99.90
64869;DHT22;51349;52.424;10.840;2023-10-31T05:49:19;11.20;99.90
64869;DHT22;51349;52.424;10.840;2023-10-31T05:54:20;11.20;99.90
64869;DHT22;51349;52.424;10.840;2023-10-31T05:59:21;11.20;99.90
64869;DHT22;51349;52.424;10.840;2023-10-31T06:04:21;11.20;99.90
64869;DHT22;51349;52.424;10.840;2023-10-31T06:09:22;11.20;99.90
64869;DHT22;51349;52.424;10.840;2023-10-31T06:14:23;11.10;99.90
64869;DHT22;51349;52.424;10.840;2023-10-31T06:19:24;11.10;99.90
64869;DHT22;51349;52.424;10.840;2023-10-31T06:24:25;11.10;99.90
64869;DHT22;51349;52.424;10.840;2023-10-31T06:29:25;11.00;99.90
64869;DHT22;51349;52.424;10.840;2023-10-31T06:34:26;10.90;99.90
64869;DHT22;51349;52.424;10.840;2023-10-31T06:39:26;11.00;99.90
64869;DHT22;51349;52.424;10.840;2023-10-31T06:44:27;11.00;99.90
64869;DHT22;51349;52.424;10.840;2023-10-31T06:49:28;11.00;99.90
64869;DHT22;51349;52.424;10.840;2023-10-31T06:54:28;11.00;99.90
64869;DHT22;51349;52.424;10.840;2023-10-31T06:59:29;10.90;99.90
64869;DHT22;51349;52.424;10.840;2023-10-31T07:04:30;10.90;99.90
64869;DHT22;51349;52.424;10.840;2023-10-31T07:09:30;10.90;99.90
64869;DHT22;51349;52.424;10.840;2023-10-31T07:14:31;10.90;99.90
64869;DHT22;51349;52.424;10.840;2023-10-31T07:19:32;10.90;99.90
64869;DHT22;51349;52.424;10.840;2023-10-31T07:24:32;10.90;99.90
64869;DHT22;51349;52.424;10.840;2023-10-31T07:29:33;10.90;99.90
64869;DHT22;51349;52.424;10.840;2023-10-31T07:34:34;10.90;99.90
64869;DHT22;51349;52.424;10.840;2023-10-31T07:39:35;10.80;99.90
64869;DHT22;51349;52.424;10.840;2023-10-31T07:44:36;10.90;99.90
64869;DHT22;51349;52.424;10.840;2023-10-31T07:49:45;10.80;99.90
64869;DHT22;51349;52.424;10.840;2023-10-31T07:54:46;10.80;99.90
64869;DHT22;51349;52.424;10.840;2023-10-31T07:59:47;10.80;99.90
64869;DHT22;51349;52.424;10.840;2023-10-31T08:04:48;10.80;99.90
64869;DHT22;51349;52.424;10.840;2023-10-31T08:09:48;10.80;99.90
64869;DHT22;51349;52.424;10.840;2023-10-31T08:14:49;10.80;99.90
64869;DHT22;51349;52.424;10.840;2023-10-31T08:19:50;10.80;99.90
64869;DHT22;51349;52.424;10.840;2023-10-31T08:24:50;10.80;99.90
64869;DHT22;51349;52.424;10.840;2023-10-31T08:29:55;10.80;99.90
64869;DHT22;51349;52.424;10.840;2023-10-31T08:34:59;10.90;99.90
64869;DHT22;51349;52.424;10.840;2023-10-31T08:40:15;10.90;99.90
64869;DHT22;51349;52.424;10.840;2023-10-31T08:45:16;11.00;99.90
64869;DHT22;51349;52.424;10.840;2023-10-31T08:50:17;11.00;99.90
64869;DHT22;51349;52.424;10.840;2023-10-31T08:55:18;11.00;99.90
64869;DHT22;51349;52.424;10.840;2023-10-31T09:00:27;11.00;99.90
64869;DHT22;51349;52.424;10.840;2023-10-31T09:05:31;10.90;99.90
64869;DHT22;51349;52.424;10.840;2023-10-31T09:10:38;10.90;99.90
64869;DHT22;51349;52.424;10.840;2023-10-31T09:15:43;10.90;99.90
64869;DHT22;51349;52.424;10.840;2023-10-31T09:20:54;11.00;99.90
64869;DHT22;51349;52.424;10.840;2023-10-31T09:25:55;11.00;99.90
64869;DHT22;51349;52.424;10.840;2023-10-31T09:30:57;11.90;99.90
64869;DHT22;51349;52.424;10.840;2023-10-31T09:36:00;12.50;99.90
64869;DHT22;51349;52.424;10.840;2023-10-31T09:41:02;12.00;99.90
64869;DHT22;51349;52.424;10.840;2023-10-31T09:46:03;11.70;99.90
64869;DHT22;51349;52.424;10.840;2023-10-31T09:51:06;11.80;99.90
64869;DHT22;51349;52.424;10.840;2023-10-31T09:56:07;12.00;99.90
64869;DHT22;51349;52.424;10.840;2023-10-31T10:01:08;11.90;99.90
64869;DHT22;51349;52.424;10.840;2023-10-31T10:06:10;12.80;99.90
64869;DHT22;51349;52.424;10.840;2023-10-31T10:11:11;13.20;99.90
64869;DHT22;51349;52.424;10.840;2023-10-31T10:16:12;12.90;99.90
64869;DHT22;51349;52.424;10.840;2023-10-31T10:21:12;12.20;99.90
64869;DHT22;51349;52.424;10.840;2023-10-31T10:26:13;12.10;99.90
64869;DHT22;51349;52.424;10.840;2023-10-31T10:31:17;11.90;99.90
64869;DHT22;51349;52.424;10.840;2023-10-31T10:36:21;11.70;99.90
64869;DHT22;51349;52.424;10.840;2023-10-31T10:41:55;11.40;99.90
64869;DHT22;51349;52.424;10.840;2023-10-31T10:47:06;11.10;99.90
64869;DHT22;51349;52.424;10.840;2023-10-31T10:58:00;11.00;99.90
64869;DHT22;51349;52.424;10.840;2023-10-31T11:03:01;11.10;99.90
64869;DHT22;51349;52.424;10.840;2023-10-31T11:08:02;11.10;99.90
64869;DHT22;51349;52.424;10.840;2023-10-31T11:13:04;11.40;99.90
64869;DHT22;51349;52.424;10.840;2023-10-31T11:18:06;11.60;99.90
64869;DHT22;51349;52.424;10.840;2023-10-31T11:23:06;11.80;99.90
64869;DHT22;51349;52.424;10.840;2023-10-31T11:28:12;12.20;99.90
64869;DHT22;51349;52.424;10.840;2023-10-31T11:33:15;12.20;99.90
64869;DHT22;51349;52.424;10.840;2023-10-31T11:38:15;11.80;99.90
64869;DHT22;51349;52.424;10.840;2023-10-31T11:43:16;11.80;99.90
64869;DHT22;51349;52.424;10.840;2023-10-31T11:48:17;11.80;99.90
64869;DHT22;51349;52.424;10.840;2023-10-31T11:53:39;12.40;99.90
64869;DHT22;51349;52.424;10.840;2023-10-31T11:58:40;12.50;99.90
64869;DHT22;51349;52.424;10.840;2023-10-31T12:03:42;12.30;99.90
64869;DHT22;51349;52.424;10.840;2023-10-31T12:08:44;12.10;99.90
64869;DHT22;51349;52.424;10.840;2023-10-31T12:14:01;11.90;99.90
64869;DHT22;51349;52.424;10.840;2023-10-31T12:19:06;12.00;99.90
64869;DHT22;51349;52.424;10.840;2023-10-31T12:24:07;12.00;99.90
64869;DHT22;51349;52.424;10.840;2023-10-31T12:29:18;12.00;99.90
64869;DHT22;51349;52.424;10.840;2023-10-31T12:34:21;11.90;99.90
64869;DHT22;51349;52.424;10.840;2023-10-31T12:39:26;12.00;99.90
64869;DHT22;51349;52.424;10.840;2023-10-31T12:44:28;12.10;99.90
64869;DHT22;51349;52.424;10.840;2023-10-31T12:49:29;12.20;99.90
64869;DHT22;51349;52.424;10.840;2023-10-31T12:54:34;12.20;99.90
64869;DHT22;51349;52.424;10.840;2023-10-31T12:59:37;12.20;99.90
64869;DHT22;51349;52.424;10.840;2023-10-31T13:04:41;12.10;99.90
64869;DHT22;51349;52.424;10.840;2023-10-31T13:09:41;12.10;99.90
64869;DHT22;51349;52.424;10.840;2023-10-31T13:14:42;12.00;99.90
64869;DHT22;51349;52.424;10.840;2023-10-31T13:19:43;11.90;99.90
64869;DHT22;51349;52.424;10.840;2023-10-31T13:24:44;11.90;99.90
64869;DHT22;51349;52.424;10.840;2023-10-31T13:29:46;11.90;99.90
64869;DHT22;51349;52.424;10.840;2023-10-31T13:34:49;12.00;99.90
64869;DHT22;51349;52.424;10.840;2023-10-31T13:39:50;12.00;99.90
64869;DHT22;51349;52.424;10.840;2023-10-31T13:44:51;11.90;99.90
64869;DHT22;51349;52.424;10.840;2023-10-31T13:49:51;11.90;99.90
64869;DHT22;51349;52.424;10.840;2023-10-31T13:54:52;11.80;99.90
64869;DHT22;51349;52.424;10.840;2023-10-31T13:59:53;11.80;99.90
64869;DHT22;51349;52.424;10.840;2023-10-31T14:04:56;11.80;99.90
64869;DHT22;51349;52.424;10.840;2023-10-31T14:09:57;11.90;99.90
64869;DHT22;51349;52.424;10.840;2023-10-31T14:14:57;12.00;99.90
64869;DHT22;51349;52.424;10.840;2023-10-31T14:19:59;11.90;99.90
64869;DHT22;51349;52.424;10.840;2023-10-31T14:25:00;12.00;99.90
64869;DHT22;51349;52.424;10.840;2023-10-31T14:30:05;12.00;99.90
64869;DHT22;51349;52.424;10.840;2023-10-31T14:35:06;12.10;99.90
64869;DHT22;51349;52.424;10.840;2023-10-31T14:40:07;12.00;99.90
64869;DHT22;51349;52.424;10.840;2023-10-31T14:45:08;12.00;99.90
64869;DHT22;51349;52.424;10.840;2023-10-31T14:50:09;12.00;99.90
64869;DHT22;51349;52.424;10.840;2023-10-31T14:55:10;12.00;99.90
64869;DHT22;51349;52.424;10.840;2023-10-31T15:00:11;12.00;99.90
64869;DHT22;51349;52.424;10.840;2023-10-31T15:05:12;12.00;99.90
64869;DHT22;51349;52.424;10.840;2023-10-31T15:10:13;12.00;99.90
64869;DHT22;51349;52.424;10.840;2023-10-31T15:15:15;12.00;99.90
64869;DHT22;51349;52.424;10.840;2023-10-31T15:20:16;12.00;99.90
64869;DHT22;51349;52.424;10.840;2023-10-31T15:25:17;12.00;99.90
64869;DHT22;51349;52.424;10.840;2023-10-31T15:30:17;12.00;99.90
64869;DHT22;51349;52.424;10.840;2023-10-31T15:35:18;12.00;99.90
64869;DHT22;51349;52.424;10.840;2023-10-31T15:40:19;11.90;99.90
64869;DHT22;51349;52.424;10.840;2023-10-31T15:45:20;11.90;99.90
64869;DHT22;51349;52.424;10.840;2023-10-31T15:50:20;11.90;99.90
64869;DHT22;51349;52.424;10.840;2023-10-31T15:55:21;11.80;99.90
64869;DHT22;51349;52.424;10.840;2023-10-31T16:00:22;11.80;99.90
64869;DHT22;51349;52.424;10.840;2023-10-31T16:05:23;11.60;99.90
64869;DHT22;51349;52.424;10.840;2023-10-31T16:10:24;11.60;99.90
64869;DHT22;51349;52.424;10.840;2023-10-31T16:15:25;11.70;99.90
64869;DHT22;51349;52.424;10.840;2023-10-31T16:20:26;11.60;99.90
64869;DHT22;51349;52.424;10.840;2023-10-31T16:25:27;11.60;99.90
64869;DHT22;51349;52.424;10.840;2023-10-31T16:30:27;11.60;99.90
64869;DHT22;51349;52.424;10.840;2023-10-31T16:35:28;11.50;99.90
64869;DHT22;51349;52.424;10.840;2023-10-31T16:40:29;11.50;99.90
64869;DHT22;51349;52.424;10.840;2023-10-31T16:45:29;11.30;99.90
64869;DHT22;51349;52.424;10.840;2023-10-31T16:50:30;11.10;99.90
64869;DHT22;51349;52.424;10.840;2023-10-31T16:55:32;11.00;99.90
64869;DHT22;51349;52.424;10.840;2023-10-31T17:00:33;10.90;99.90
64869;DHT22;51349;52.424;10.840;2023-10-31T17:05:34;10.90;99.90
64869;DHT22;51349;52.424;10.840;2023-10-31T17:10:35;10.80;99.90
64869;DHT22;51349;52.424;10.840;2023-10-31T17:15:35;10.80;99.90
64869;DHT22;51349;52.424;10.840;2023-10-31T17:20:36;10.70;99.90
64869;DHT22;51349;52.424;10.840;2023-10-31T17:25:37;10.50;99.90
64869;DHT22;51349;52.424;10.840;2023-10-31T17:30:39;10.40;99.90
64869;DHT22;51349;52.424;10.840;2023-10-31T17:35:40;10.30;99.90
64869;DHT22;51349;52.424;10.840;2023-10-31T17:40:41;10.30;99.90
64869;DHT22;51349;52.424;10.840;2023-10-31T17:45:42;10.20;99.90
64869;DHT22;51349;52.424;10.840;2023-10-31T17:50:42;10.20;99.90
64869;DHT22;51349;52.424;10.840;2023-10-31T17:55:45;10.20;99.90
64869;DHT22;51349;52.424;10.840;2023-10-31T18:00:46;10.10;99.90
64869;DHT22;51349;52.424;10.840;2023-10-31T18:05:47;10.10;99.90
64869;DHT22;51349;52.424;10.840;2023-10-31T18:10:47;10.10;99.90
64869;DHT22;51349;52.424;10.840;2023-10-31T18:15:48;10.10;99.90
64869;DHT22;51349;52.424;10.840;2023-10-31T18:20:50;10.10;99.90
64869;DHT22;51349;52.424;10.840;2023-10-31T18:25:52;10.00;99.90
64869;DHT22;51349;52.424;10.840;2023-10-31T18:30:54;10.00;99.90
64869;DHT22;51349;52.424;10.840;2023-10-31T18:35:54;10.00;99.90
64869;DHT22;51349;52.424;10.840;2023-10-31T18:40:55;9.90;99.90
64869;DHT22;51349;52.424;10.840;2023-10-31T18:45:56;9.80;99.90
64869;DHT22;51349;52.424;10.840;2023-10-31T18:50:56;9.80;99.90
64869;DHT22;51349;52.424;10.840;2023-10-31T18:55:58;9.80;99.90
64869;DHT22;51349;52.424;10.840;2023-10-31T19:00:58;9.80;99.90
64869;DHT22;51349;52.424;10.840;2023-10-31T19:05:59;9.80;99.90
64869;DHT22;51349;52.424;10.840;2023-10-31T19:11:00;9.80;99.90
64869;DHT22;51349;52.424;10.840;2023-10-31T19:16:00;9.80;99.90
64869;DHT22;51349;52.424;10.840;2023-10-31T19:21:01;9.80;99.90
64869;DHT22;51349;52.424;10.840;2023-10-31T19:26:02;9.80;99.90
64869;DHT22;51349;52.424;10.840;2023-10-31T19:31:03;9.80;99.90
64869;DHT22;51349;52.424;10.840;2023-10-31T19:36:04;9.70;99.90
64869;DHT22;51349;52.424;10.840;2023-10-31T19:41:05;9.60;99.90
64869;DHT22;51349;52.424;10.840;2023-10-31T19:46:07;9.60;99.90
64869;DHT22;51349;52.424;10.840;2023-10-31T19:51:08;9.50;99.90
64869;DHT22;51349;52.424;10.840;2023-10-31T19:56:19;9.40;99.90
64869;DHT22;51349;52.424;10.840;2023-10-31T20:01:20;9.40;99.90
64869;DHT22;51349;52.424;10.840;2023-10-31T20:06:21;9.40;99.90
64869;DHT22;51349;52.424;10.840;2023-10-31T20:11:22;9.30;99.90
64869;DHT22;51349;52.424;10.840;2023-10-31T20:16:22;9.30;99.90
64869;DHT22;51349;52.424;10.840;2023-10-31T20:21:23;9.20;99.90
64869;DHT22;51349;52.424;10.840;2023-10-31T20:26:24;9.20;99.90
64869;DHT22;51349;52.424;10.840;2023-10-31T20:31:24;9.20;99.90
64869;DHT22;51349;52.424;10.840;2023-10-31T20:36:25;9.20;99.90
64869;DHT22;51349;52.424;10.840;2023-10-31T20:41:26;9.10;99.90
64869;DHT22;51349;52.424;10.840;2023-10-31T20:46:26;9.10;99.90
64869;DHT22;51349;52.424;10.840;2023-10-31T20:51:27;9.10;99.90
64869;DHT22;51349;52.424;10.840;2023-10-31T20:56:28;9.00;99.90
64869;DHT22;51349;52.424;10.840;2023-10-31T21:01:28;9.00;99.90
64869;DHT22;51349;52.424;10.840;2023-10-31T21:06:32;9.00;99.90
64869;DHT22;51349;52.424;10.840;2023-10-31T21:11:35;8.90;99.90
64869;DHT22;51349;52.424;10.840;2023-10-31T21:16:38;8.80;99.90
64869;DHT22;51349;52.424;10.840;2023-10-31T21:21:39;8.90;99.90
64869;DHT22;51349;52.424;10.840;2023-10-31T21:26:40;8.90;99.90
64869;DHT22;51349;52.424;10.840;2023-10-31T21:31:40;8.90;99.90
64869;DHT22;51349;52.424;10.840;2023-10-31T21:36:41;8.90;99.90
64869;DHT22;51349;52.424;10.840;2023-10-31T21:41:46;8.80;99.90
64869;DHT22;51349;52.424;10.840;2023-10-31T21:46:48;8.80;99.90
64869;DHT22;51349;52.424;10.840;2023-10-31T21:51:49;8.70;99.90
64869;DHT22;51349;52.424;10.840;2023-10-31T21:56:50;8.70;99.90
64869;DHT22;51349;52.424;10.840;2023-10-31T22:01:51;8.50;99.90
64869;DHT22;51349;52.424;10.840;2023-10-31T22:06:51;8.50;99.90
64869;DHT22;51349;52.424;10.840;2023-10-31T22:11:52;8.60;99.90
64869;DHT22;51349;52.424;10.840;2023-10-31T22:16:53;8.40;99.90
64869;DHT22;51349;52.424;10.840;2023-10-31T22:21:53;8.40;99.90
64869;DHT22;51349;52.424;10.840;2023-10-31T22:26:54;8.50;99.90
64869;DHT22;51349;52.424;10.840;2023-10-31T22:31:55;8.50;99.90
64869;DHT22;51349;52.424;10.840;2023-10-31T22:36:56;8.40;99.90
64869;DHT22;51349;52.424;10.840;2023-10-31T22:41:57;8.40;99.90
64869;DHT22;51349;52.424;10.840;2023-10-31T22:46:57;8.40;99.90
64869;DHT22;51349;52.424;10.840;2023-10-31T22:51:58;8.30;99.90
64869;DHT22;51349;52.424;10.840;2023-10-31T22:56:59;8.20;99.90
64869;DHT22;51349;52.424;10.840;2023-10-31T23:02:00;8.20;99.90
64869;DHT22;51349;52.424;10.840;2023-10-31T23:07:00;8.20;99.90
64869;DHT22;51349;52.424;10.840;2023-10-31T23:12:01;8.10;99.90
64869;DHT22;51349;52.424;10.840;2023-10-31T23:17:02;8.10;99.90
64869;DHT22;51349;52.424;10.840;2023-10-31T23:22:03;8.00;99.90
64869;DHT22;51349;52.424;10.840;2023-10-31T23:27:04;7.90;99.90
64869;DHT22;51349;52.424;10.840;2023-10-31T23:32:05;7.90;99.90
64869;DHT22;51349;52.424;10.840;2023-10-31T23:37:05;7.90;99.90
64869;DHT22;51349;52.424;10.840;2023-10-31T23:42:06;8.00;99.90
64869;DHT22;51349;52.424;10.840;2023-10-31T23:47:07;8.00;99.90
64869;DHT22;51349;52.424;10.840;2023-10-31T23:52:08;8.10;99.90
64869;DHT22;51349;52.424;10.840;2023-10-31T23:57:09;8.10;99.90
